Time;durP1;ratioP1;P1;durP2;ratioP2;P2;SDS_P1;SDS_P2;PMS_P1;PMS_P2;Temp;Humidity;BMP_temperature;BMP_pressure;BME280_temperature;BME280_humidity;BME280_pressure;Samples;Min_cycle;Max_cycle;Signal;HPM_P1;HPM_P2
2022/10/17 00:00:35;;;;;;;10.43;5.35;;;;;;;12.83;100.00;101558.59;5047416;28;20458;-79
2022/10/17 00:03:00;;;;;;;7.53;5.25;;;;;;;12.84;100.00;101557.69;5047459;28;20042;-79
2022/10/17 00:05:26;;;;;;;12.38;5.93;;;;;;;12.85;100.00;101555.00;5031825;28;20045;-79
2022/10/17 00:07:52;;;;;;;9.60;5.93;;;;;;;12.86;100.00;101555.88;5032081;28;20113;-79
2022/10/17 00:10:18;;;;;;;6.40;4.95;;;;;;;12.85;100.00;101555.00;5047292;28;20037;-79
2022/10/17 00:12:43;;;;;;;8.80;5.75;;;;;;;12.88;100.00;101554.06;5047335;28;20060;-79
2022/10/17 00:15:13;;;;;;;9.38;5.25;;;;;;;12.87;100.00;101553.19;5032177;28;20064;-79
2022/10/17 00:17:38;;;;;;;8.20;5.55;;;;;;;12.88;100.00;101549.63;5030626;28;20022;-79
2022/10/17 00:20:04;;;;;;;8.35;5.82;;;;;;;12.88;100.00;101544.31;5031823;28;20118;-79
2022/10/17 00:22:30;;;;;;;11.30;6.10;;;;;;;12.87;100.00;101539.88;5000425;28;20137;-79
2022/10/17 00:24:55;;;;;;;6.90;4.70;;;;;;;12.86;100.00;101545.25;5043335;28;20122;-79
2022/10/17 00:27:21;;;;;;;9.75;5.80;;;;;;;12.88;100.00;101535.44;5032342;28;20098;-79
2022/10/17 00:29:50;;;;;;;12.38;5.90;;;;;;;12.88;100.00;101541.66;5050496;28;20496;-79
2022/10/17 00:32:17;;;;;;;8.85;5.80;;;;;;;12.88;100.00;101539.00;5054017;28;20145;-79
2022/10/17 00:34:43;;;;;;;11.20;5.90;;;;;;;12.90;100.00;101530.97;5045495;28;20400;-79
2022/10/17 00:37:08;;;;;;;11.68;5.55;;;;;;;12.87;100.00;101523.06;5053934;28;20034;-79
2022/10/17 00:39:34;;;;;;;9.65;6.05;;;;;;;12.89;100.00;101521.25;5053552;28;20033;-79
2022/10/17 00:41:59;;;;;;;14.38;5.57;;;;;;;12.86;100.00;101522.19;5017528;28;20116;-79
2022/10/17 00:44:28;;;;;;;8.13;5.85;;;;;;;12.88;100.00;101522.16;5036876;28;20065;-79
2022/10/17 00:47:00;;;;;;;8.48;5.72;;;;;;;12.89;100.00;101522.13;5040288;28;20025;-79
2022/10/17 00:49:29;;;;;;;7.43;6.13;;;;;;;12.90;100.00;101520.34;5038132;28;20059;-79
2022/10/17 00:52:03;;;;;;;8.93;6.20;;;;;;;12.93;100.00;101527.38;5053773;28;20068;-79
2022/10/17 00:54:36;;;;;;;9.10;5.80;;;;;;;12.90;100.00;101533.63;5053564;28;20036;-79
2022/10/17 00:57:02;;;;;;;10.85;5.85;;;;;;;12.89;100.00;101535.44;5045719;28;20551;-78
2022/10/17 00:59:29;;;;;;;9.30;6.05;;;;;;;12.91;100.00;101533.63;5036083;28;20052;-78
2022/10/17 01:02:08;;;;;;;7.85;5.55;;;;;;;12.88;100.00;101525.72;5036847;28;20226;-78
2022/10/17 01:04:40;;;;;;;11.98;6.18;;;;;;;12.93;100.00;101525.59;5037822;28;20033;-78
2022/10/17 01:07:06;;;;;;;7.78;5.57;;;;;;;12.89;100.00;101521.25;5028427;28;20041;-78
2022/10/17 01:09:32;;;;;;;9.68;5.88;;;;;;;12.89;100.00;101514.16;5053279;28;20017;-78
2022/10/17 01:12:03;;;;;;;7.97;5.75;;;;;;;12.89;100.00;101508.84;5038118;28;20072;-78
2022/10/17 01:15:10;;;;;;;7.63;5.75;;;;;;;12.93;100.00;101511.44;5041823;28;20358;-78
2022/10/17 01:17:39;;;;;;;12.25;6.40;;;;;;;12.95;100.00;101505.16;5026513;28;20050;-78
2022/10/17 01:20:04;;;;;;;8.85;5.63;;;;;;;12.95;100.00;101496.31;5037887;28;20380;-78
2022/10/17 01:22:46;;;;;;;10.45;6.57;;;;;;;12.99;100.00;101503.34;5053154;28;20057;-78
2022/10/17 01:25:56;;;;;;;13.27;6.38;;;;;;;13.02;100.00;101516.56;5053132;28;20041;-78
2022/10/17 01:28:37;;;;;;;9.20;6.50;;;;;;;13.04;100.00;101515.63;5029287;28;20033;-78
2022/10/17 01:31:15;;;;;;;10.15;6.85;;;;;;;13.07;100.00;101517.34;5047588;28;20481;-78
2022/10/17 01:34:02;;;;;;;10.32;7.20;;;;;;;13.08;100.00;101514.66;5033066;28;20037;-78
2022/10/17 01:36:37;;;;;;;10.70;7.10;;;;;;;13.16;100.00;101508.31;5053286;28;20489;-78
2022/10/17 01:39:33;;;;;;;7.05;6.10;;;;;;;13.15;100.00;101503.88;5035651;28;20030;-78
2022/10/17 01:42:15;;;;;;;9.93;6.85;;;;;;;13.21;100.00;101503.75;5050228;28;20054;-78
2022/10/17 01:44:52;;;;;;;10.65;7.38;;;;;;;13.24;100.00;101495.69;5049872;28;20060;-78
2022/10/17 01:47:23;;;;;;;11.23;7.65;;;;;;;13.26;100.00;101499.19;5048494;28;20045;-78
2022/10/17 01:49:53;;;;;;;13.80;7.10;;;;;;;13.26;100.00;101491.22;5033286;28;20048;-78
2022/10/17 01:52:23;;;;;;;17.02;8.05;;;;;;;13.28;100.00;101498.28;5050158;28;20021;-78
2022/10/17 01:55:13;;;;;;;12.93;6.80;;;;;;;13.30;100.00;101493.81;5033199;28;20381;-78
2022/10/17 01:57:48;;;;;;;12.07;7.68;;;;;;;13.36;100.00;101497.25;5048154;28;20112;-78
2022/10/17 02:00:18;;;;;;;17.92;7.97;;;;;;;13.39;100.00;101499.81;5049841;28;20102;-78
2022/10/17 02:02:54;;;;;;;9.68;7.70;;;;;;;13.44;100.00;101503.25;5049451;28;20577;-78
2022/10/17 02:05:25;;;;;;;11.30;7.75;;;;;;;13.48;100.00;101508.47;5041522;28;20391;-78
2022/10/17 02:07:50;;;;;;;10.00;7.38;;;;;;;13.48;100.00;101497.84;5029332;28;20034;-78
2022/10/17 02:10:24;;;;;;;8.82;7.80;;;;;;;13.53;100.00;101492.41;5032954;28;20033;-78
2022/10/17 02:13:01;;;;;;;10.82;7.30;;;;;;;13.50;100.00;101497.78;5049570;28;20044;-78
2022/10/17 02:16:02;;;;;;;14.10;7.63;;;;;;;13.52;100.00;101488.84;5033755;28;20184;-78
2022/10/17 02:18:31;;;;;;;10.60;7.38;;;;;;;13.53;100.00;101490.63;5032786;28;20389;-78
2022/10/17 02:21:11;;;;;;;14.73;7.53;;;;;;;13.49;100.00;101485.41;5049262;28;20554;-78
2022/10/17 02:23:50;;;;;;;15.07;7.60;;;;;;;13.51;100.00;101487.09;5033781;28;20080;-78
2022/10/17 02:26:32;;;;;;;11.18;7.50;;;;;;;13.49;100.00;101483.59;5034034;28;20124;-78
2022/10/17 02:29:09;;;;;;;8.90;7.68;;;;;;;13.51;100.00;101483.56;5051981;28;20025;-78
2022/10/17 02:32:22;;;;;;;14.13;8.27;;;;;;;13.52;100.00;101485.31;5053657;28;20040;-78
2022/10/17 02:34:53;;;;;;;13.82;7.90;;;;;;;13.51;100.00;101484.44;5041353;28;20040;-78
2022/10/17 02:37:23;;;;;;;9.02;7.25;;;;;;;13.49;100.00;101485.41;5050129;28;20501;-78
2022/10/17 02:39:50;;;;;;;8.82;7.25;;;;;;;13.50;100.00;101485.38;5033831;28;20052;-78
2022/10/17 02:42:16;;;;;;;12.63;7.78;;;;;;;13.53;100.00;101481.75;5032479;28;20388;-78
2022/10/17 02:44:44;;;;;;;11.98;8.55;;;;;;;13.52;100.00;101485.31;5015831;28;20095;-77
2022/10/17 02:47:24;;;;;;;13.52;8.25;;;;;;;13.56;100.00;101487.00;5043233;28;20033;-77
2022/10/17 02:49:54;;;;;;;11.63;8.38;;;;;;;13.56;100.00;101484.34;5031720;28;20488;-77
2022/10/17 02:52:34;;;;;;;12.52;7.85;;;;;;;13.56;100.00;101479.03;5033570;28;20326;-77
2022/10/17 02:55:17;;;;;;;;;;;;;;;13.61;100.00;101473.59;5048976;28;20029;-77
2022/10/17 02:57:53;;;;;;;12.05;8.30;;;;;;;13.60;100.00;101482.47;5032049;28;19913;-77
2022/10/17 03:00:22;;;;;;;10.57;8.20;;;;;;;13.63;100.00;101488.59;5048473;28;20067;-77
2022/10/17 03:02:50;;;;;;;14.05;8.70;;;;;;;13.65;100.00;101481.47;5015494;28;20112;-78
2022/10/17 03:05:24;;;;;;;14.32;8.43;;;;;;;13.66;100.00;101480.53;5040913;28;20037;-78
2022/10/17 03:07:51;;;;;;;12.15;7.72;;;;;;;13.66;100.00;101482.34;5041603;28;20030;-78
2022/10/17 03:10:16;;;;;;;10.27;7.63;;;;;;;13.67;100.00;101481.41;5031962;28;20049;-78
2022/10/17 03:12:42;;;;;;;15.82;7.40;;;;;;;13.68;100.00;101477.84;5048174;28;20429;-78
2022/10/17 03:15:09;;;;;;;12.20;7.53;;;;;;;13.67;100.00;101476.09;5031708;28;20021;-78
2022/10/17 03:17:35;;;;;;;10.50;7.20;;;;;;;13.69;100.00;101480.47;5012031;28;20204;-78
2022/10/17 03:20:01;;;;;;;11.27;7.63;;;;;;;13.72;100.00;101471.53;5045147;28;20564;-78
2022/10/17 03:22:28;;;;;;;13.00;7.32;;;;;;;13.74;100.00;101477.69;5031337;28;20050;-78
2022/10/17 03:24:54;;;;;;;9.77;7.35;;;;;;;13.75;100.00;101475.00;5015179;28;20037;-78
2022/10/17 03:27:20;;;;;;;14.27;7.95;;;;;;;13.81;100.00;101481.94;5031021;28;20417;-78
2022/10/17 03:29:46;;;;;;;10.50;7.25;;;;;;;13.81;100.00;101468.63;5055519;28;20043;-78
2022/10/17 03:32:13;;;;;;;13.25;7.15;;;;;;;13.84;100.00;101470.34;5015861;28;20032;-78
2022/10/17 03:34:39;;;;;;;15.40;7.05;;;;;;;13.86;100.00;101473.84;5043436;28;20037;-78
2022/10/17 03:37:05;;;;;;;11.65;7.55;;;;;;;13.93;100.00;101476.31;5050607;28;20338;-78
2022/10/17 03:39:32;;;;;;;10.07;6.68;;;;;;;13.93;100.00;101470.13;4998969;28;20059;-78
2022/10/17 03:41:57;;;;;;;17.55;6.90;;;;;;;13.99;100.00;101475.28;5031254;28;20073;-78
2022/10/17 03:44:23;;;;;;;12.93;7.22;;;;;;;14.02;100.00;101474.31;5032516;28;20113;-78
2022/10/17 03:46:48;;;;;;;9.85;6.80;;;;;;;14.06;100.00;101476.00;5009031;28;20561;-78
2022/10/17 03:49:14;;;;;;;11.40;6.95;;;;;;;14.16;100.00;101472.16;5048026;28;20107;-78
2022/10/17 03:51:40;;;;;;;8.20;6.78;;;;;;;14.17;100.00;101463.28;5031152;28;20044;-78
2022/10/17 03:54:10;;;;;;;12.52;7.25;;;;;;;14.19;100.00;101467.66;5047446;28;20083;-78
2022/10/17 03:56:35;;;;;;;11.75;6.82;;;;;;;14.24;100.00;101462.19;5044194;28;20077;-78
2022/10/17 03:59:03;;;;;;;13.50;7.10;;;;;;;14.23;100.00;101478.22;5027201;28;20033;-78
2022/10/17 04:01:32;;;;;;;12.25;6.72;;;;;;;14.27;100.00;101483.44;5047155;28;20045;-78
2022/10/17 04:03:58;;;;;;;12.20;7.45;;;;;;;14.30;100.00;101475.34;5030567;28;20025;-78
2022/10/17 04:06:27;;;;;;;10.77;7.20;;;;;;;14.34;100.00;101485.00;5035690;28;20036;-78
2022/10/17 04:08:52;;;;;;;10.18;7.43;;;;;;;14.36;100.00;101487.63;5047378;28;20029;-78
2022/10/17 04:11:26;;;;;;;10.73;7.63;;;;;;;14.38;100.00;101491.13;5030835;28;20037;-78
2022/10/17 04:13:56;;;;;;;14.37;7.30;;;;;;;14.38;100.00;101486.66;5047237;28;20381;-78
2022/10/17 04:16:24;;;;;;;12.38;6.63;;;;;;;14.38;100.00;101492.00;5047379;28;20048;-78
2022/10/17 04:18:58;;;;;;;13.55;7.07;;;;;;;14.45;100.00;101491.84;5047199;28;20563;-78
2022/10/17 04:21:27;;;;;;;10.80;6.85;;;;;;;14.46;100.00;101496.22;5046902;28;20069;-78
2022/10/17 04:23:58;;;;;;;10.65;6.80;;;;;;;14.50;100.00;101497.91;5046770;28;20076;-78
2022/10/17 04:26:50;;;;;;;10.35;6.07;;;;;;;14.49;100.00;101498.81;5040520;28;20041;-78
2022/10/17 04:29:17;;;;;;;10.93;6.32;;;;;;;14.53;100.00;101504.03;5050563;28;20117;-78
2022/10/17 04:31:45;;;;;;;16.50;6.80;;;;;;;14.54;100.00;101512.91;5034637;28;20037;-78
2022/10/17 04:34:18;;;;;;;8.40;6.18;;;;;;;14.54;100.00;101511.16;5055076;28;20423;-78
2022/10/17 04:36:44;;;;;;;10.95;6.20;;;;;;;14.56;100.00;101522.66;5035486;28;20037;-78
2022/10/17 04:39:10;;;;;;;11.90;6.88;;;;;;;14.61;100.00;101503.84;5010527;28;20038;-78
2022/10/17 04:41:37;;;;;;;14.10;6.93;;;;;;;14.61;100.00;101520.72;5023324;28;20042;-78
2022/10/17 04:44:03;;;;;;;16.58;6.75;;;;;;;14.63;100.00;101523.31;5030080;28;20022;-76
2022/10/17 04:46:34;;;;;;;16.42;7.47;;;;;;;14.66;100.00;101538.34;5055726;28;20140;-76
2022/10/17 04:48:59;;;;;;;11.93;6.57;;;;;;;14.69;100.00;101532.94;5034130;28;20532;-75
2022/10/17 04:51:25;;;;;;;8.65;6.57;;;;;;;14.73;100.00;101543.47;5030472;28;20128;-76
2022/10/17 04:54:22;;;;;;;8.93;5.75;;;;;;;14.71;100.00;101533.78;5013393;28;20038;-76
2022/10/17 04:56:54;;;;;;;10.30;5.93;;;;;;;14.71;100.00;101545.34;5046906;28;20065;-76
2022/10/17 04:59:20;;;;;;;11.50;6.55;;;;;;;14.74;100.00;101550.56;5013728;28;20068;-76
2022/10/17 05:01:50;;;;;;;10.03;6.03;;;;;;;14.75;100.00;101543.44;5027672;28;20034;-75
2022/10/17 05:04:16;;;;;;;11.27;5.82;;;;;;;14.80;100.00;101547.72;5013672;28;20310;-76
2022/10/17 05:06:42;;;;;;;12.57;6.40;;;;;;;14.81;100.00;101549.50;4996915;28;20120;-76
2022/10/17 05:09:36;;;;;;;9.30;6.57;;;;;;;14.82;100.00;101548.56;5018513;28;20049;-76
2022/10/17 05:12:03;;;;;;;12.57;6.15;;;;;;;14.84;100.00;101556.53;5046984;28;20029;-76
2022/10/17 05:14:29;;;;;;;10.30;5.85;;;;;;;14.79;100.00;101537.13;5047839;28;20091;-76
2022/10/17 05:16:54;;;;;;;13.00;6.55;;;;;;;14.79;100.00;101535.31;5033911;28;20033;-76
2022/10/17 05:19:20;;;;;;;9.68;6.20;;;;;;;14.80;100.00;101542.38;5000874;28;20171;-76
2022/10/17 05:21:48;;;;;;;15.77;6.28;;;;;;;14.81;100.00;101548.59;5033720;28;20394;-76
2022/10/17 05:24:14;;;;;;;14.27;5.90;;;;;;;14.80;100.00;101547.72;5049977;28;20091;-76
2022/10/17 05:26:39;;;;;;;8.90;6.07;;;;;;;14.80;100.00;101547.72;5034751;28;20045;-76
2022/10/17 05:29:05;;;;;;;16.33;6.38;;;;;;;14.82;100.00;101558.34;5036835;28;20045;-75
2022/10/17 05:31:34;;;;;;;10.20;5.95;;;;;;;14.83;100.00;101562.75;5055442;28;20124;-76
2022/10/17 05:34:03;;;;;;;8.93;5.90;;;;;;;14.84;100.00;101553.84;5040838;28;20116;-76
2022/10/17 05:36:31;;;;;;;10.75;5.90;;;;;;;14.86;100.00;101559.13;5057210;28;20017;-76
2022/10/17 05:38:58;;;;;;;11.80;5.82;;;;;;;14.85;100.00;101568.94;4997354;28;20037;-76
2022/10/17 05:41:25;;;;;;;10.25;6.10;;;;;;;14.85;100.00;101566.25;5041015;28;20042;-75
2022/10/17 05:43:51;;;;;;;11.60;5.90;;;;;;;14.86;100.00;101564.47;5000317;28;20030;-76
2022/10/17 05:46:20;;;;;;;15.05;5.63;;;;;;;14.86;100.00;101573.38;5040556;28;20041;-76
2022/10/17 05:48:46;;;;;;;14.50;5.75;;;;;;;14.86;100.00;101570.69;5037447;28;20470;-76
2022/10/17 05:51:13;;;;;;;8.65;6.07;;;;;;;14.88;100.00;101568.84;5033245;28;20042;-76
2022/10/17 05:53:41;;;;;;;9.48;5.40;;;;;;;14.89;100.00;101570.59;5016818;28;20030;-76
2022/10/17 05:56:12;;;;;;;8.52;5.40;;;;;;;14.90;100.00;101575.00;5049505;28;20053;-76
2022/10/17 05:58:44;;;;;;;9.95;6.22;;;;;;;14.91;100.00;101574.09;5034331;28;20045;-76
2022/10/17 06:01:17;;;;;;;11.07;5.72;;;;;;;14.91;100.00;101570.53;5049700;28;20040;-76
2022/10/17 06:03:43;;;;;;;9.25;5.88;;;;;;;14.94;100.00;101571.34;5033070;28;20053;-76
2022/10/17 06:06:11;;;;;;;11.40;5.70;;;;;;;14.97;100.00;101573.91;5021109;28;20060;-76
2022/10/17 06:08:41;;;;;;;12.93;5.13;;;;;;;14.97;100.00;101579.25;5049417;28;20052;-76
2022/10/17 06:11:10;;;;;;;11.57;5.85;;;;;;;15.01;100.00;101577.38;5049016;28;20044;-76
2022/10/17 06:13:36;;;;;;;13.40;5.65;;;;;;;15.02;100.00;101572.00;5032223;28;20024;-76
2022/10/17 06:16:08;;;;;;;11.02;5.63;;;;;;;15.06;100.00;101572.78;5017135;28;20084;-76
2022/10/17 06:18:34;;;;;;;10.93;6.70;;;;;;;15.07;100.00;101569.19;5049026;28;20069;-76
2022/10/17 06:21:05;;;;;;;10.32;5.60;;;;;;;15.09;100.00;101578.03;5012959;28;20119;-76
2022/10/17 06:23:31;;;;;;;11.35;5.63;;;;;;;15.07;100.00;101581.66;5032329;28;20049;-76
2022/10/17 06:26:05;;;;;;;7.28;5.32;;;;;;;15.12;100.00;101587.75;5013227;28;20046;-76
2022/10/17 06:28:32;;;;;;;7.72;5.32;;;;;;;15.12;100.00;101585.94;5032303;28;20048;-76
2022/10/17 06:30:57;;;;;;;12.73;6.18;;;;;;;15.14;100.00;101586.78;5054777;28;20022;-76
2022/10/17 06:33:23;;;;;;;10.95;5.85;;;;;;;15.15;100.00;101577.84;5015878;28;20029;-76
2022/10/17 06:35:53;;;;;;;9.98;5.95;;;;;;;15.16;100.00;101579.59;5032331;28;20025;-76
2022/10/17 06:38:21;;;;;;;12.13;6.00;;;;;;;15.19;100.00;101583.97;5031972;28;20049;-77
2022/10/17 06:40:49;;;;;;;11.95;5.35;;;;;;;15.21;100.00;101588.34;5020388;28;20566;-77
2022/10/17 06:43:15;;;;;;;12.88;5.55;;;;;;;15.22;100.00;101595.41;5031836;28;20047;-77
2022/10/17 06:45:54;;;;;;;9.73;5.32;;;;;;;15.27;100.00;101595.28;5036400;28;20124;-77
2022/10/17 06:48:30;;;;;;;11.52;5.38;;;;;;;15.30;100.00;101595.19;5039617;28;20045;-77
2022/10/17 06:51:27;;;;;;;10.23;5.53;;;;;;;15.34;100.00;101604.00;5010010;28;20037;-77
2022/10/17 06:53:57;;;;;;;11.05;6.30;;;;;;;15.36;100.00;101615.50;5029250;28;20033;-77
2022/10/17 06:56:34;;;;;;;12.88;6.30;;;;;;;15.38;100.00;101614.53;5024070;28;20345;-77
2022/10/17 06:59:18;;;;;;;12.90;6.15;;;;;;;15.41;100.00;101618.91;5046506;28;20114;-77
2022/10/17 07:01:51;;;;;;;9.23;5.10;;;;;;;15.42;100.00;101607.31;5047982;28;20124;-77
2022/10/17 07:04:16;;;;;;;12.27;5.50;;;;;;;15.43;100.00;101603.69;5014949;28;20175;-76
2022/10/17 07:06:42;;;;;;;8.82;5.07;;;;;;;15.46;100.00;101612.50;5031784;28;20435;-77
2022/10/17 07:09:15;;;;;;;10.13;5.63;;;;;;;15.51;100.00;101608.84;5008531;28;20136;-77
2022/10/17 07:11:41;;;;;;;7.50;4.88;;;;;;;15.52;100.00;101608.78;5028388;28;20057;-77
2022/10/17 07:14:07;;;;;;;10.60;5.25;;;;;;;15.57;100.00;101614.84;5022050;28;20049;-77
2022/10/17 07:16:33;;;;;;;13.65;5.47;;;;;;;15.61;100.00;101616.50;5011809;28;20113;-77
2022/10/17 07:19:05;;;;;;;8.48;4.93;;;;;;;15.62;100.00;101614.72;5031355;28;20033;-77
2022/10/17 07:21:34;;;;;;;8.77;4.57;;;;;;;15.63;100.00;101614.69;5015188;28;20037;-77
2022/10/17 07:23:59;;;;;;;13.30;5.25;;;;;;;15.64;100.00;101608.41;5023632;28;20068;-77
2022/10/17 07:26:25;;;;;;;7.03;5.03;;;;;;;15.67;100.00;101615.44;5021829;28;20125;-77
2022/10/17 07:28:53;;;;;;;12.48;5.13;;;;;;;15.71;100.00;101622.47;5047398;28;20030;-77
2022/10/17 07:31:31;;;;;;;8.68;4.82;;;;;;;15.73;100.00;101630.47;5052100;28;20033;-77
2022/10/17 07:33:59;;;;;;;11.18;5.20;;;;;;;15.72;100.00;101636.69;5015126;28;20079;-77
2022/10/17 07:36:25;;;;;;;11.80;5.30;;;;;;;15.73;100.00;101651.81;5047370;28;20029;-77
2022/10/17 07:38:50;;;;;;;7.65;4.65;;;;;;;15.76;100.00;101670.41;5047303;28;20524;-77
2022/10/17 07:41:18;;;;;;;9.25;4.85;;;;;;;15.80;100.00;101690.75;5014982;28;20026;-77
2022/10/17 07:43:44;;;;;;;8.82;4.75;;;;;;;15.81;100.00;101721.88;5013147;28;20136;-77
2022/10/17 07:46:10;;;;;;;10.57;5.13;;;;;;;15.82;100.00;101745.84;5053939;28;20278;-77
2022/10/17 07:48:39;;;;;;;8.82;4.90;;;;;;;15.88;100.00;101755.50;5052988;28;20036;-77
2022/10/17 07:51:06;;;;;;;13.65;5.22;;;;;;;15.91;100.00;101766.09;5014710;28;20063;-77
2022/10/17 07:53:43;;;;;;;12.88;5.00;;;;;;;15.91;100.00;101799.03;5047440;28;20052;-77
2022/10/17 07:56:09;;;;;;;19.17;5.80;;;;;;;15.98;100.00;101796.19;5033761;28;20458;-78
2022/10/17 07:58:36;;;;;;;22.90;6.00;;;;;;;15.90;100.00;101799.97;5032525;28;20100;-84
2022/10/17 08:01:04;;;;;;;14.32;5.60;;;;;;;15.85;100.00;101788.53;5031300;28;20041;-84
2022/10/17 08:03:29;;;;;;;10.50;5.03;;;;;;;15.79;100.00;101756.63;5032663;28;20100;-84
2022/10/17 08:05:59;;;;;;;16.05;5.80;;;;;;;15.80;100.00;101765.53;5035763;28;20044;-86
2022/10/17 08:08:26;;;;;;;9.80;4.97;;;;;;;15.77;100.00;101770.97;5014911;28;20022;-86
2022/10/17 08:10:52;;;;;;;13.10;5.50;;;;;;;15.77;100.00;101760.28;5031680;28;20041;-86
2022/10/17 08:13:18;;;;;;;15.88;5.47;;;;;;;15.77;100.00;101763.81;5032099;28;20075;-83
2022/10/17 08:15:46;;;;;;;7.85;5.00;;;;;;;15.73;100.00;101751.50;5030370;28;20110;-82
2022/10/17 08:18:13;;;;;;;12.25;5.30;;;;;;;15.73;100.00;101755.97;5032013;28;20116;-81
2022/10/17 08:20:39;;;;;;;8.27;5.60;;;;;;;15.72;100.00;101767.53;5031012;28;20029;-80
2022/10/17 08:23:05;;;;;;;8.25;5.60;;;;;;;15.69;100.00;101788.06;5029664;28;20405;-81
2022/10/17 08:25:31;;;;;;;10.90;5.50;;;;;;;15.70;100.00;101818.31;5014341;28;20049;-80
2022/10/17 08:27:57;;;;;;;8.90;5.32;;;;;;;15.71;100.00;101859.28;5034773;28;20067;-80
2022/10/17 08:30:22;;;;;;;10.57;5.95;;;;;;;15.75;100.00;101869.84;5034560;28;20029;-83
2022/10/17 08:32:48;;;;;;;10.38;6.25;;;;;;;15.71;100.00;101851.25;5014850;28;20698;-82
2022/10/17 08:35:14;;;;;;;9.75;4.78;;;;;;;15.72;100.00;101843.19;5036793;28;20366;-83
2022/10/17 08:37:40;;;;;;;13.98;6.43;;;;;;;15.69;100.00;101832.56;5031226;28;20137;-86
2022/10/17 08:40:06;;;;;;;14.25;6.10;;;;;;;15.67;100.00;101843.28;5031069;28;20053;-84
2022/10/17 08:43:09;;;;;;;16.15;5.50;;;;;;;15.70;100.00;101831.66;5030729;28;20037;-80
2022/10/17 08:45:47;;;;;;;10.93;6.47;;;;;;;15.69;100.00;101819.22;5047042;28;20048;-80
2022/10/17 08:48:19;;;;;;;8.00;5.57;;;;;;;15.68;100.00;101823.69;5032782;28;20485;-80
2022/10/17 08:50:48;;;;;;;13.57;5.55;;;;;;;15.67;100.00;101821.03;5035619;28;20025;-79
2022/10/17 08:53:30;;;;;;;11.57;5.95;;;;;;;15.67;100.00;101839.72;5034465;28;20033;-79
2022/10/17 08:56:00;;;;;;;13.48;5.60;;;;;;;15.67;100.00;101819.25;5035498;28;20033;-81
2022/10/17 08:58:34;;;;;;;8.25;5.47;;;;;;;15.67;100.00;101818.38;5028288;28;20484;-82
2022/10/17 09:01:30;;;;;;;7.28;5.55;;;;;;;15.69;100.00;101828.13;5036007;28;20033;-83
2022/10/17 09:04:14;;;;;;;13.65;6.55;;;;;;;15.71;100.00;101820.09;5035660;28;20034;-81
2022/10/17 09:06:53;;;;;;;13.68;5.88;;;;;;;15.69;100.00;101820.13;5047818;28;20429;-82
2022/10/17 09:09:48;;;;;;;10.52;6.63;;;;;;;15.70;100.00;101820.97;5034361;28;20033;-81
2022/10/17 09:12:23;;;;;;;11.48;6.15;;;;;;;15.72;100.00;101836.97;5050572;28;20369;-80
2022/10/17 09:15:15;;;;;;;9.43;6.28;;;;;;;15.71;100.00;101860.13;5017463;28;20055;-80
2022/10/17 09:17:54;;;;;;;12.30;6.40;;;;;;;15.69;100.00;101878.88;5035302;28;20037;-81
2022/10/17 09:20:24;;;;;;;11.93;5.93;;;;;;;15.68;100.00;101874.41;5050951;28;20090;-83
2022/10/17 09:22:58;;;;;;;11.87;5.93;;;;;;;15.67;100.00;101891.34;5049142;28;20406;-83
2022/10/17 09:25:26;;;;;;;8.77;5.55;;;;;;;15.68;100.00;101884.22;5050483;28;20049;-85
2022/10/17 09:27:59;;;;;;;15.95;6.55;;;;;;;15.66;100.00;101891.41;5034817;28;20108;-85
2022/10/17 09:30:46;;;;;;;11.40;5.95;;;;;;;15.66;100.00;101875.38;5035652;28;20109;-84
2022/10/17 09:33:27;;;;;;;10.18;5.57;;;;;;;15.66;100.00;101840.66;5033475;28;20026;-84
2022/10/17 09:35:54;;;;;;;8.02;5.45;;;;;;;15.65;100.00;101798.84;5034621;28;20033;-83
2022/10/17 09:38:23;;;;;;;8.38;5.47;;;;;;;15.67;100.00;101805.03;5034389;28;20037;-83
2022/10/17 09:41:00;;;;;;;8.52;5.18;;;;;;;15.69;100.00;101804.09;5035358;28;20079;-83
2022/10/17 09:43:26;;;;;;;8.88;5.22;;;;;;;15.74;100.00;101811.13;5033467;28;20041;-82
2022/10/17 09:46:03;;;;;;;10.43;6.10;;;;;;;15.74;100.00;101820.00;5038804;28;20021;-80
2022/10/17 09:48:41;;;;;;;9.55;5.70;;;;;;;15.77;100.00;101838.59;5036424;28;20496;-80
2022/10/17 09:51:07;;;;;;;9.00;5.72;;;;;;;15.75;100.00;101859.16;5049950;28;20128;-81
2022/10/17 09:53:36;;;;;;;8.85;5.40;;;;;;;15.73;100.00;101882.34;5049882;28;20136;-80
2022/10/17 09:56:07;;;;;;;10.50;5.68;;;;;;;15.73;100.00;101871.66;5034214;28;20033;-80
2022/10/17 09:58:45;;;;;;;9.43;5.80;;;;;;;15.71;100.00;101846.78;5034651;28;20034;-82
2022/10/17 10:01:29;;;;;;;11.30;5.32;;;;;;;15.74;100.00;101844.03;5032294;28;20080;-82
2022/10/17 10:04:15;;;;;;;8.63;5.45;;;;;;;15.78;100.00;101831.47;5034151;28;20121;-81
2022/10/17 10:07:01;;;;;;;8.82;5.38;;;;;;;15.77;100.00;101829.72;5032886;28;20033;-80
2022/10/17 10:09:30;;;;;;;9.57;5.60;;;;;;;15.80;100.00;101834.97;5033709;28;20029;-81
2022/10/17 10:11:57;;;;;;;9.70;6.20;;;;;;;15.85;100.00;101849.97;5027739;28;20075;-80
2022/10/17 10:14:27;;;;;;;9.45;6.07;;;;;;;15.86;100.00;101864.19;5032988;28;20424;-80
2022/10/17 10:16:54;;;;;;;10.02;6.18;;;;;;;15.89;100.00;101869.44;5032618;28;20011;-80
2022/10/17 10:19:31;;;;;;;9.32;5.85;;;;;;;15.90;100.00;101866.72;5034044;28;20477;-80
2022/10/17 10:22:03;;;;;;;9.15;5.97;;;;;;;15.93;100.00;101867.56;5048972;28;20124;-80
2022/10/17 10:24:29;;;;;;;8.55;5.57;;;;;;;15.95;100.00;101865.72;5031823;28;20049;-81
2022/10/17 10:27:02;;;;;;;12.25;6.40;;;;;;;15.96;100.00;101878.16;5025710;28;20413;-80
2022/10/17 10:29:31;;;;;;;14.30;7.13;;;;;;;16.01;100.00;101889.59;5037130;28;20029;-80
2022/10/17 10:32:10;;;;;;;13.45;6.30;;;;;;;16.04;100.00;101892.19;5051614;28;20120;-81
2022/10/17 10:34:44;;;;;;;13.05;6.50;;;;;;;16.04;100.00;101902.88;5049781;28;20117;-80
2022/10/17 10:37:22;;;;;;;9.15;5.95;;;;;;;16.06;100.00;101907.25;5033611;28;20037;-80
2022/10/17 10:39:50;;;;;;;14.43;5.93;;;;;;;16.10;100.00;101921.41;5024190;28;20114;-80
2022/10/17 10:42:27;;;;;;;9.57;6.85;;;;;;;16.12;100.00;101923.13;5032257;28;20021;-80
2022/10/17 10:44:58;;;;;;;9.77;6.65;;;;;;;16.12;100.00;101922.22;5033307;28;20116;-80
2022/10/17 10:47:27;;;;;;;11.18;6.40;;;;;;;16.09;100.00;101930.34;5036107;28;20167;-80
2022/10/17 10:50:25;;;;;;;9.55;7.40;;;;;;;16.11;100.00;101944.53;5033170;28;20116;-81
2022/10/17 10:52:56;;;;;;;9.70;5.78;;;;;;;16.06;100.00;101962.50;5018873;28;20056;-81
2022/10/17 10:55:27;;;;;;;11.20;6.22;;;;;;;16.00;100.00;101955.53;5032545;28;20061;-80
2022/10/17 10:58:00;;;;;;;10.90;6.15;;;;;;;15.97;100.00;101960.91;5031768;28;20033;-80
2022/10/17 11:00:28;;;;;;;8.60;5.82;;;;;;;15.96;100.00;101964.53;5032844;28;20037;-80
2022/10/17 11:02:56;;;;;;;9.90;5.55;;;;;;;15.94;100.00;101961.00;5027586;28;20564;-80
2022/10/17 11:05:37;;;;;;;9.18;5.75;;;;;;;15.96;100.00;101958.31;5023795;28;20088;-80
2022/10/17 11:08:37;;;;;;;11.45;5.95;;;;;;;15.94;100.00;101970.81;5047126;28;20041;-79
2022/10/17 11:11:22;;;;;;;10.80;5.35;;;;;;;15.95;100.00;101962.78;5036688;28;20041;-80
2022/10/17 11:13:57;;;;;;;7.68;5.20;;;;;;;15.96;100.00;101975.22;5032658;28;20492;-79
2022/10/17 11:16:25;;;;;;;7.25;5.38;;;;;;;15.97;100.00;101968.06;5044991;28;20474;-79
2022/10/17 11:19:17;;;;;;;9.45;6.30;;;;;;;15.99;100.00;101974.25;5032064;28;20025;-79
2022/10/17 11:22:01;;;;;;;6.97;5.82;;;;;;;15.98;100.00;101980.53;5021197;28;20042;-80
2022/10/17 11:24:55;;;;;;;8.02;5.90;;;;;;;16.00;100.00;101989.34;5031234;28;20037;-79
2022/10/17 11:27:26;;;;;;;9.73;6.00;;;;;;;16.00;100.00;101994.69;5031738;28;20037;-79
2022/10/17 11:29:52;;;;;;;9.88;5.75;;;;;;;15.99;100.00;101999.16;5060625;28;20033;-79
2022/10/17 11:32:38;;;;;;;11.75;5.63;;;;;;;16.00;100.00;102003.63;5049715;28;20026;-79